sensor_id;sensor_type;location;lat;lon;timestamp;P1;durP1;ratioP1;P2;durP2;ratioP2
38994;SDS011;24769;18.712;99.000;2023-03-31T00:02:01;249.50;;;243.50;;
38994;SDS011;24769;18.712;99.000;2023-03-31T00:04:40;265.75;;;257.75;;
38994;SDS011;24769;18.712;99.000;2023-03-31T00:07:17;253.75;;;248.00;;
38994;SDS011;24769;18.712;99.000;2023-03-31T00:09:48;273.75;;;270.50;;
38994;SDS011;24769;18.712;99.000;2023-03-31T00:12:19;293.00;;;276.75;;
38994;SDS011;24769;18.712;99.000;2023-03-31T00:14:46;286.00;;;273.00;;
38994;SDS011;24769;18.712;99.000;2023-03-31T00:17:12;276.25;;;267.25;;
38994;SDS011;24769;18.712;99.000;2023-03-31T00:19:39;285.75;;;273.75;;
38994;SDS011;24769;18.712;99.000;2023-03-31T00:22:06;286.25;;;278.75;;
38994;SDS011;24769;18.712;99.000;2023-03-31T00:24:33;305.25;;;298.50;;
38994;SDS011;24769;18.712;99.000;2023-03-31T00:27:01;327.00;;;315.33;;
38994;SDS011;24769;18.712;99.000;2023-03-31T00:29:29;328.33;;;317.33;;
38994;SDS011;24769;18.712;99.000;2023-03-31T00:31:58;345.25;;;330.50;;
38994;SDS011;24769;18.712;99.000;2023-03-31T00:34:25;333.00;;;322.33;;
38994;SDS011;24769;18.712;99.000;2023-03-31T00:36:52;330.20;;;322.00;;
38994;SDS011;24769;18.712;99.000;2023-03-31T00:39:22;332.67;;;318.67;;
38994;SDS011;24769;18.712;99.000;2023-03-31T00:41:56;332.50;;;319.75;;
38994;SDS011;24769;18.712;99.000;2023-03-31T00:44:24;354.00;;;344.00;;
38994;SDS011;24769;18.712;99.000;2023-03-31T00:46:55;353.20;;;343.00;;
38994;SDS011;24769;18.712;99.000;2023-03-31T00:49:44;366.00;;;357.25;;
38994;SDS011;24769;18.712;99.000;2023-03-31T00:54:52;364.20;;;343.60;;
38994;SDS011;24769;18.712;99.000;2023-03-31T00:57:23;372.80;;;367.00;;
38994;SDS011;24769;18.712;99.000;2023-03-31T00:59:54;350.00;;;343.40;;
38994;SDS011;24769;18.712;99.000;2023-03-31T01:02:36;369.20;;;351.40;;
38994;SDS011;24769;18.712;99.000;2023-03-31T01:05:05;396.60;;;379.80;;
38994;SDS011;24769;18.712;99.000;2023-03-31T01:07:38;398.75;;;388.50;;
38994;SDS011;24769;18.712;99.000;2023-03-31T01:10:08;394.80;;;379.40;;
38994;SDS011;24769;18.712;99.000;2023-03-31T01:12:37;381.20;;;371.60;;
38994;SDS011;24769;18.712;99.000;2023-03-31T01:15:10;393.00;;;376.50;;
38994;SDS011;24769;18.712;99.000;2023-03-31T01:17:37;394.75;;;377.50;;
38994;SDS011;24769;18.712;99.000;2023-03-31T01:20:11;405.75;;;387.75;;
38994;SDS011;24769;18.712;99.000;2023-03-31T01:34:40;449.80;;;428.00;;
38994;SDS011;24769;18.712;99.000;2023-03-31T01:48:57;457.20;;;444.60;;
38994;SDS011;24769;18.712;99.000;2023-03-31T01:54:17;472.33;;;456.67;;
38994;SDS011;24769;18.712;99.000;2023-03-31T01:56:51;469.60;;;452.80;;
38994;SDS011;24769;18.712;99.000;2023-03-31T01:59:26;478.20;;;463.60;;
38994;SDS011;24769;18.712;99.000;2023-03-31T02:02:20;463.75;;;448.50;;
38994;SDS011;24769;18.712;99.000;2023-03-31T02:04:54;470.40;;;447.80;;
38994;SDS011;24769;18.712;99.000;2023-03-31T02:07:33;477.00;;;461.60;;
38994;SDS011;24769;18.712;99.000;2023-03-31T02:10:07;463.60;;;453.00;;
38994;SDS011;24769;18.712;99.000;2023-03-31T02:12:35;469.80;;;451.40;;
38994;SDS011;24769;18.712;99.000;2023-03-31T02:15:06;434.80;;;424.00;;
38994;SDS011;24769;18.712;99.000;2023-03-31T02:17:41;449.00;;;442.50;;
38994;SDS011;24769;18.712;99.000;2023-03-31T02:20:13;462.60;;;446.40;;
38994;SDS011;24769;18.712;99.000;2023-03-31T02:22:44;442.50;;;426.50;;
38994;SDS011;24769;18.712;99.000;2023-03-31T02:25:14;450.00;;;424.25;;
38994;SDS011;24769;18.712;99.000;2023-03-31T02:27:46;458.20;;;442.00;;
38994;SDS011;24769;18.712;99.000;2023-03-31T02:30:20;431.20;;;416.20;;
38994;SDS011;24769;18.712;99.000;2023-03-31T02:32:47;428.75;;;408.75;;
38994;SDS011;24769;18.712;99.000;2023-03-31T02:35:17;421.80;;;414.20;;
38994;SDS011;24769;18.712;99.000;2023-03-31T02:37:46;424.75;;;415.25;;
38994;SDS011;24769;18.712;99.000;2023-03-31T02:40:18;450.00;;;426.00;;
38994;SDS011;24769;18.712;99.000;2023-03-31T02:42:46;455.40;;;437.20;;
38994;SDS011;24769;18.712;99.000;2023-03-31T02:48:04;441.80;;;422.20;;
38994;SDS011;24769;18.712;99.000;2023-03-31T02:50:36;429.00;;;416.20;;
38994;SDS011;24769;18.712;99.000;2023-03-31T02:59:14;416.80;;;406.00;;
38994;SDS011;24769;18.712;99.000;2023-03-31T03:07:23;404.75;;;394.50;;
38994;SDS011;24769;18.712;99.000;2023-03-31T03:10:21;413.40;;;399.00;;
38994;SDS011;24769;18.712;99.000;2023-03-31T03:12:56;423.20;;;410.60;;
38994;SDS011;24769;18.712;99.000;2023-03-31T03:15:44;403.40;;;396.40;;
38994;SDS011;24769;18.712;99.000;2023-03-31T03:18:15;407.80;;;399.40;;
38994;SDS011;24769;18.712;99.000;2023-03-31T03:20:42;401.00;;;392.80;;
38994;SDS011;24769;18.712;99.000;2023-03-31T03:23:15;418.00;;;405.20;;
38994;SDS011;24769;18.712;99.000;2023-03-31T03:25:43;410.40;;;401.20;;
38994;SDS011;24769;18.712;99.000;2023-03-31T03:28:10;404.80;;;387.60;;
38994;SDS011;24769;18.712;99.000;2023-03-31T03:30:37;390.00;;;382.00;;
38994;SDS011;24769;18.712;99.000;2023-03-31T03:33:03;387.25;;;377.75;;
38994;SDS011;24769;18.712;99.000;2023-03-31T03:35:34;364.50;;;354.50;;
38994;SDS011;24769;18.712;99.000;2023-03-31T03:38:01;354.50;;;341.75;;
38994;SDS011;24769;18.712;99.000;2023-03-31T03:40:27;365.00;;;358.50;;
38994;SDS011;24769;18.712;99.000;2023-03-31T03:42:54;357.75;;;351.00;;
38994;SDS011;24769;18.712;99.000;2023-03-31T03:45:21;346.00;;;341.75;;
38994;SDS011;24769;18.712;99.000;2023-03-31T03:47:48;346.75;;;342.00;;
38994;SDS011;24769;18.712;99.000;2023-03-31T03:50:14;311.00;;;305.60;;
38994;SDS011;24769;18.712;99.000;2023-03-31T03:52:41;317.40;;;311.60;;
38994;SDS011;24769;18.712;99.000;2023-03-31T03:55:08;333.00;;;328.20;;
38994;SDS011;24769;18.712;99.000;2023-03-31T03:57:36;309.00;;;306.40;;
38994;SDS011;24769;18.712;99.000;2023-03-31T04:00:03;319.60;;;312.40;;
38994;SDS011;24769;18.712;99.000;2023-03-31T04:02:34;310.00;;;304.80;;
38994;SDS011;24769;18.712;99.000;2023-03-31T04:05:01;306.40;;;301.80;;
38994;SDS011;24769;18.712;99.000;2023-03-31T04:07:28;294.25;;;291.50;;
38994;SDS011;24769;18.712;99.000;2023-03-31T04:09:54;310.00;;;302.50;;
38994;SDS011;24769;18.712;99.000;2023-03-31T04:12:21;276.75;;;275.00;;
38994;SDS011;24769;18.712;99.000;2023-03-31T04:14:47;279.50;;;273.25;;
38994;SDS011;24769;18.712;99.000;2023-03-31T04:17:14;276.00;;;273.75;;
38994;SDS011;24769;18.712;99.000;2023-03-31T04:19:41;267.00;;;262.50;;
38994;SDS011;24769;18.712;99.000;2023-03-31T04:22:08;256.75;;;252.75;;
38994;SDS011;24769;18.712;99.000;2023-03-31T04:24:36;260.75;;;256.25;;
38994;SDS011;24769;18.712;99.000;2023-03-31T04:27:03;260.50;;;257.25;;
38994;SDS011;24769;18.712;99.000;2023-03-31T04:29:31;262.75;;;261.50;;
38994;SDS011;24769;18.712;99.000;2023-03-31T04:32:01;264.50;;;262.50;;
38994;SDS011;24769;18.712;99.000;2023-03-31T04:34:28;281.50;;;275.50;;
38994;SDS011;24769;18.712;99.000;2023-03-31T04:37:00;260.50;;;258.75;;
38994;SDS011;24769;18.712;99.000;2023-03-31T04:39:27;254.33;;;253.00;;
38994;SDS011;24769;18.712;99.000;2023-03-31T04:41:55;253.67;;;253.33;;
38994;SDS011;24769;18.712;99.000;2023-03-31T04:44:23;257.75;;;252.75;;
38994;SDS011;24769;18.712;99.000;2023-03-31T04:46:50;240.75;;;238.25;;
38994;SDS011;24769;18.712;99.000;2023-03-31T04:49:18;233.00;;;230.75;;
38994;SDS011;24769;18.712;99.000;2023-03-31T04:51:44;243.00;;;241.50;;
38994;SDS011;24769;18.712;99.000;2023-03-31T04:54:11;241.75;;;240.25;;
38994;SDS011;24769;18.712;99.000;2023-03-31T04:56:38;241.00;;;240.33;;
38994;SDS011;24769;18.712;99.000;2023-03-31T04:59:05;250.00;;;245.67;;
38994;SDS011;24769;18.712;99.000;2023-03-31T05:01:32;248.67;;;244.67;;
38994;SDS011;24769;18.712;99.000;2023-03-31T05:04:01;246.25;;;244.50;;
38994;SDS011;24769;18.712;99.000;2023-03-31T05:06:28;240.50;;;231.75;;
38994;SDS011;24769;18.712;99.000;2023-03-31T05:08:55;231.25;;;229.75;;
38994;SDS011;24769;18.712;99.000;2023-03-31T05:11:22;243.00;;;241.00;;
38994;SDS011;24769;18.712;99.000;2023-03-31T05:13:48;239.33;;;237.33;;
38994;SDS011;24769;18.712;99.000;2023-03-31T05:16:15;237.00;;;235.00;;
38994;SDS011;24769;18.712;99.000;2023-03-31T05:18:43;227.67;;;224.33;;
38994;SDS011;24769;18.712;99.000;2023-03-31T05:21:11;248.25;;;245.00;;
38994;SDS011;24769;18.712;99.000;2023-03-31T05:23:43;239.00;;;238.67;;
38994;SDS011;24769;18.712;99.000;2023-03-31T05:26:10;243.25;;;241.75;;
38994;SDS011;24769;18.712;99.000;2023-03-31T05:28:38;245.25;;;243.00;;
38994;SDS011;24769;18.712;99.000;2023-03-31T05:31:05;253.00;;;247.67;;
38994;SDS011;24769;18.712;99.000;2023-03-31T05:33:33;252.33;;;251.00;;
38994;SDS011;24769;18.712;99.000;2023-03-31T05:36:05;257.33;;;253.67;;
38994;SDS011;24769;18.712;99.000;2023-03-31T05:38:35;247.67;;;245.33;;
38994;SDS011;24769;18.712;99.000;2023-03-31T05:41:02;241.67;;;239.00;;
38994;SDS011;24769;18.712;99.000;2023-03-31T05:43:29;249.00;;;247.67;;
38994;SDS011;24769;18.712;99.000;2023-03-31T05:45:56;252.00;;;250.33;;
38994;SDS011;24769;18.712;99.000;2023-03-31T05:48:22;250.33;;;248.33;;
38994;SDS011;24769;18.712;99.000;2023-03-31T05:50:49;248.00;;;240.25;;
38994;SDS011;24769;18.712;99.000;2023-03-31T05:53:15;243.00;;;240.25;;
38994;SDS011;24769;18.712;99.000;2023-03-31T05:55:42;242.00;;;239.50;;
38994;SDS011;24769;18.712;99.000;2023-03-31T05:58:08;240.00;;;237.50;;
38994;SDS011;24769;18.712;99.000;2023-03-31T06:00:35;239.50;;;238.25;;
38994;SDS011;24769;18.712;99.000;2023-03-31T06:03:02;239.25;;;237.00;;
38994;SDS011;24769;18.712;99.000;2023-03-31T06:05:32;243.25;;;241.00;;
38994;SDS011;24769;18.712;99.000;2023-03-31T06:08:00;238.25;;;233.50;;
38994;SDS011;24769;18.712;99.000;2023-03-31T06:10:26;239.25;;;238.00;;
38994;SDS011;24769;18.712;99.000;2023-03-31T06:12:53;240.25;;;238.75;;
38994;SDS011;24769;18.712;99.000;2023-03-31T06:15:20;239.75;;;236.75;;
38994;SDS011;24769;18.712;99.000;2023-03-31T06:17:46;237.50;;;235.50;;
38994;SDS011;24769;18.712;99.000;2023-03-31T06:20:13;230.00;;;228.75;;
38994;SDS011;24769;18.712;99.000;2023-03-31T06:22:39;228.75;;;225.75;;
38994;SDS011;24769;18.712;99.000;2023-03-31T06:25:06;242.50;;;241.25;;
38994;SDS011;24769;18.712;99.000;2023-03-31T06:27:36;247.75;;;245.25;;
38994;SDS011;24769;18.712;99.000;2023-03-31T06:30:02;249.67;;;247.67;;
38994;SDS011;24769;18.712;99.000;2023-03-31T06:32:30;245.00;;;241.50;;
38994;SDS011;24769;18.712;99.000;2023-03-31T06:34:59;237.00;;;236.50;;
38994;SDS011;24769;18.712;99.000;2023-03-31T06:37:26;245.00;;;243.75;;
38994;SDS011;24769;18.712;99.000;2023-03-31T06:39:52;242.00;;;238.00;;
38994;SDS011;24769;18.712;99.000;2023-03-31T06:42:19;244.00;;;239.00;;
38994;SDS011;24769;18.712;99.000;2023-03-31T06:44:45;226.25;;;225.50;;
38994;SDS011;24769;18.712;99.000;2023-03-31T06:47:12;231.50;;;229.50;;
38994;SDS011;24769;18.712;99.000;2023-03-31T06:49:38;237.50;;;233.00;;
38994;SDS011;24769;18.712;99.000;2023-03-31T06:52:05;237.75;;;235.25;;
38994;SDS011;24769;18.712;99.000;2023-03-31T06:54:35;243.50;;;239.50;;
38994;SDS011;24769;18.712;99.000;2023-03-31T06:57:01;237.75;;;232.75;;
38994;SDS011;24769;18.712;99.000;2023-03-31T06:59:28;227.00;;;224.25;;
38994;SDS011;24769;18.712;99.000;2023-03-31T07:01:56;232.50;;;227.75;;
38994;SDS011;24769;18.712;99.000;2023-03-31T07:04:22;235.75;;;229.75;;
38994;SDS011;24769;18.712;99.000;2023-03-31T07:06:49;236.25;;;232.50;;
38994;SDS011;24769;18.712;99.000;2023-03-31T07:09:16;230.25;;;228.25;;
38994;SDS011;24769;18.712;99.000;2023-03-31T07:11:43;224.25;;;224.00;;
38994;SDS011;24769;18.712;99.000;2023-03-31T07:14:09;213.75;;;210.50;;
38994;SDS011;24769;18.712;99.000;2023-03-31T07:16:36;222.50;;;219.00;;
38994;SDS011;24769;18.712;99.000;2023-03-31T07:19:02;232.50;;;229.75;;
38994;SDS011;24769;18.712;99.000;2023-03-31T07:21:30;240.00;;;233.50;;
38994;SDS011;24769;18.712;99.000;2023-03-31T07:23:57;222.50;;;222.50;;
38994;SDS011;24769;18.712;99.000;2023-03-31T07:26:23;217.00;;;216.00;;
38994;SDS011;24769;18.712;99.000;2023-03-31T07:28:51;228.25;;;224.25;;
38994;SDS011;24769;18.712;99.000;2023-03-31T07:31:20;217.00;;;212.25;;
38994;SDS011;24769;18.712;99.000;2023-03-31T07:33:47;212.75;;;210.25;;
38994;SDS011;24769;18.712;99.000;2023-03-31T07:36:14;211.00;;;210.00;;
38994;SDS011;24769;18.712;99.000;2023-03-31T07:38:42;218.75;;;217.00;;
38994;SDS011;24769;18.712;99.000;2023-03-31T07:41:11;214.00;;;213.00;;
38994;SDS011;24769;18.712;99.000;2023-03-31T07:43:39;214.50;;;213.75;;
38994;SDS011;24769;18.712;99.000;2023-03-31T07:46:06;203.20;;;203.20;;
38994;SDS011;24769;18.712;99.000;2023-03-31T07:48:40;212.00;;;208.00;;
38994;SDS011;24769;18.712;99.000;2023-03-31T07:51:08;206.80;;;204.60;;
38994;SDS011;24769;18.712;99.000;2023-03-31T07:53:35;207.60;;;207.20;;
38994;SDS011;24769;18.712;99.000;2023-03-31T07:56:02;201.25;;;199.75;;
38994;SDS011;24769;18.712;99.000;2023-03-31T07:58:28;208.80;;;206.80;;
38994;SDS011;24769;18.712;99.000;2023-03-31T08:00:55;199.60;;;196.40;;
38994;SDS011;24769;18.712;99.000;2023-03-31T08:03:21;195.40;;;194.20;;
38994;SDS011;24769;18.712;99.000;2023-03-31T08:05:51;189.80;;;188.60;;
38994;SDS011;24769;18.712;99.000;2023-03-31T08:08:19;195.20;;;190.20;;
38994;SDS011;24769;18.712;99.000;2023-03-31T08:10:46;198.20;;;197.20;;
38994;SDS011;24769;18.712;99.000;2023-03-31T08:13:13;190.80;;;189.80;;
38994;SDS011;24769;18.712;99.000;2023-03-31T08:15:40;177.40;;;176.00;;
38994;SDS011;24769;18.712;99.000;2023-03-31T08:18:07;193.60;;;191.60;;
38994;SDS011;24769;18.712;99.000;2023-03-31T08:20:33;184.40;;;182.80;;
38994;SDS011;24769;18.712;99.000;2023-03-31T08:23:00;176.80;;;174.60;;
38994;SDS011;24769;18.712;99.000;2023-03-31T08:25:26;185.80;;;184.80;;
38994;SDS011;24769;18.712;99.000;2023-03-31T08:27:53;187.60;;;186.20;;
38994;SDS011;24769;18.712;99.000;2023-03-31T08:30:20;186.80;;;185.00;;
38994;SDS011;24769;18.712;99.000;2023-03-31T08:32:46;192.20;;;192.20;;
38994;SDS011;24769;18.712;99.000;2023-03-31T08:35:13;178.60;;;175.80;;
38994;SDS011;24769;18.712;99.000;2023-03-31T08:37:40;186.80;;;186.20;;
38994;SDS011;24769;18.712;99.000;2023-03-31T08:40:07;177.00;;;174.20;;
38994;SDS011;24769;18.712;99.000;2023-03-31T08:42:48;181.60;;;179.60;;
38994;SDS011;24769;18.712;99.000;2023-03-31T08:50:31;178.80;;;177.00;;
38994;SDS011;24769;18.712;99.000;2023-03-31T08:53:07;170.80;;;168.40;;
38994;SDS011;24769;18.712;99.000;2023-03-31T08:55:48;174.20;;;172.60;;
38994;SDS011;24769;18.712;99.000;2023-03-31T09:03:38;171.80;;;171.40;;
38994;SDS011;24769;18.712;99.000;2023-03-31T09:06:19;175.60;;;173.60;;
38994;SDS011;24769;18.712;99.000;2023-03-31T09:08:51;164.40;;;164.00;;
38994;SDS011;24769;18.712;99.000;2023-03-31T09:11:57;168.00;;;166.80;;
38994;SDS011;24769;18.712;99.000;2023-03-31T09:14:36;166.20;;;165.20;;
38994;SDS011;24769;18.712;99.000;2023-03-31T09:25:45;150.60;;;150.60;;
38994;SDS011;24769;18.712;99.000;2023-03-31T09:28:14;164.40;;;162.20;;
38994;SDS011;24769;18.712;99.000;2023-03-31T09:30:46;176.00;;;175.40;;
38994;SDS011;24769;18.712;99.000;2023-03-31T09:33:26;167.80;;;165.80;;
38994;SDS011;24769;18.712;99.000;2023-03-31T09:35:59;174.40;;;172.60;;
38994;SDS011;24769;18.712;99.000;2023-03-31T09:38:27;157.20;;;156.40;;
38994;SDS011;24769;18.712;99.000;2023-03-31T09:40:58;170.40;;;168.20;;
38994;SDS011;24769;18.712;99.000;2023-03-31T09:43:28;161.20;;;159.60;;
38994;SDS011;24769;18.712;99.000;2023-03-31T09:45:59;172.40;;;171.60;;
38994;SDS011;24769;18.712;99.000;2023-03-31T09:48:28;164.00;;;163.00;;
38994;SDS011;24769;18.712;99.000;2023-03-31T09:50:59;159.00;;;159.00;;
38994;SDS011;24769;18.712;99.000;2023-03-31T09:56:06;168.40;;;168.00;;
38994;SDS011;24769;18.712;99.000;2023-03-31T09:58:42;163.80;;;161.60;;
38994;SDS011;24769;18.712;99.000;2023-03-31T10:01:13;167.60;;;165.60;;
38994;SDS011;24769;18.712;99.000;2023-03-31T10:03:50;168.60;;;166.80;;
38994;SDS011;24769;18.712;99.000;2023-03-31T10:06:19;167.00;;;165.80;;
38994;SDS011;24769;18.712;99.000;2023-03-31T10:08:50;172.60;;;170.00;;
38994;SDS011;24769;18.712;99.000;2023-03-31T10:11:22;167.20;;;165.00;;
38994;SDS011;24769;18.712;99.000;2023-03-31T10:13:54;165.80;;;163.20;;
38994;SDS011;24769;18.712;99.000;2023-03-31T10:18:54;173.80;;;173.00;;
38994;SDS011;24769;18.712;99.000;2023-03-31T10:21:36;166.40;;;164.40;;
38994;SDS011;24769;18.712;99.000;2023-03-31T10:24:07;166.20;;;166.20;;
38994;SDS011;24769;18.712;99.000;2023-03-31T10:26:35;169.00;;;168.80;;
38994;SDS011;24769;18.712;99.000;2023-03-31T10:29:02;167.60;;;166.80;;
38994;SDS011;24769;18.712;99.000;2023-03-31T10:31:37;176.20;;;175.00;;
38994;SDS011;24769;18.712;99.000;2023-03-31T10:34:08;170.60;;;169.00;;
38994;SDS011;24769;18.712;99.000;2023-03-31T10:36:48;173.40;;;168.40;;
38994;SDS011;24769;18.712;99.000;2023-03-31T10:39:17;169.20;;;169.00;;
38994;SDS011;24769;18.712;99.000;2023-03-31T10:41:50;170.80;;;168.40;;
38994;SDS011;24769;18.712;99.000;2023-03-31T10:44:31;169.40;;;168.00;;
38994;SDS011;24769;18.712;99.000;2023-03-31T10:47:15;175.80;;;172.80;;
38994;SDS011;24769;18.712;99.000;2023-03-31T10:49:47;155.80;;;154.60;;
38994;SDS011;24769;18.712;99.000;2023-03-31T10:52:20;171.80;;;170.80;;
38994;SDS011;24769;18.712;99.000;2023-03-31T10:55:00;173.80;;;171.20;;
38994;SDS011;24769;18.712;99.000;2023-03-31T10:57:36;170.00;;;167.40;;
38994;SDS011;24769;18.712;99.000;2023-03-31T11:02:50;165.40;;;164.20;;
38994;SDS011;24769;18.712;99.000;2023-03-31T11:10:58;176.40;;;176.20;;
38994;SDS011;24769;18.712;99.000;2023-03-31T11:19:24;175.00;;;171.80;;
38994;SDS011;24769;18.712;99.000;2023-03-31T11:38:43;179.40;;;177.40;;
38994;SDS011;24769;18.712;99.000;2023-03-31T11:41:35;184.75;;;179.00;;
38994;SDS011;24769;18.712;99.000;2023-03-31T11:44:07;176.00;;;176.00;;
38994;SDS011;24769;18.712;99.000;2023-03-31T11:46:50;159.00;;;157.75;;
38994;SDS011;24769;18.712;99.000;2023-03-31T11:49:34;173.25;;;172.00;;
38994;SDS011;24769;18.712;99.000;2023-03-31T11:52:13;184.00;;;181.00;;
38994;SDS011;24769;18.712;99.000;2023-03-31T12:00:30;170.00;;;170.00;;
38994;SDS011;24769;18.712;99.000;2023-03-31T12:06:09;167.50;;;164.50;;
38994;SDS011;24769;18.712;99.000;2023-03-31T12:08:34;171.00;;;169.25;;
38994;SDS011;24769;18.712;99.000;2023-03-31T12:13:38;181.25;;;176.75;;
38994;SDS011;24769;18.712;99.000;2023-03-31T12:16:45;177.25;;;175.75;;
38994;SDS011;24769;18.712;99.000;2023-03-31T12:19:21;180.75;;;180.25;;
38994;SDS011;24769;18.712;99.000;2023-03-31T12:22:26;174.75;;;173.75;;
38994;SDS011;24769;18.712;99.000;2023-03-31T12:24:56;184.25;;;183.50;;
38994;SDS011;24769;18.712;99.000;2023-03-31T12:29:59;177.75;;;176.50;;
38994;SDS011;24769;18.712;99.000;2023-03-31T12:32:36;186.25;;;182.75;;
38994;SDS011;24769;18.712;99.000;2023-03-31T12:45:38;183.50;;;178.75;;
38994;SDS011;24769;18.712;99.000;2023-03-31T12:56:22;188.50;;;186.50;;
38994;SDS011;24769;18.712;99.000;2023-03-31T12:58:50;190.25;;;186.50;;
38994;SDS011;24769;18.712;99.000;2023-03-31T13:01:17;199.50;;;192.00;;
38994;SDS011;24769;18.712;99.000;2023-03-31T13:03:46;184.25;;;179.75;;
38994;SDS011;24769;18.712;99.000;2023-03-31T13:14:02;185.50;;;181.25;;
38994;SDS011;24769;18.712;99.000;2023-03-31T13:16:45;178.75;;;177.50;;
38994;SDS011;24769;18.712;99.000;2023-03-31T13:21:57;188.50;;;188.25;;
38994;SDS011;24769;18.712;99.000;2023-03-31T13:24:27;189.50;;;189.00;;
38994;SDS011;24769;18.712;99.000;2023-03-31T13:26:56;193.00;;;188.50;;
38994;SDS011;24769;18.712;99.000;2023-03-31T13:29:37;190.00;;;183.50;;
38994;SDS011;24769;18.712;99.000;2023-03-31T13:41:03;184.50;;;182.25;;
38994;SDS011;24769;18.712;99.000;2023-03-31T13:44:04;198.00;;;191.75;;
38994;SDS011;24769;18.712;99.000;2023-03-31T13:52:01;200.75;;;197.50;;
38994;SDS011;24769;18.712;99.000;2023-03-31T13:57:28;202.50;;;200.25;;
38994;SDS011;24769;18.712;99.000;2023-03-31T14:06:01;198.75;;;190.75;;
38994;SDS011;24769;18.712;99.000;2023-03-31T14:09:00;191.75;;;185.50;;
38994;SDS011;24769;18.712;99.000;2023-03-31T14:11:33;183.75;;;183.25;;
38994;SDS011;24769;18.712;99.000;2023-03-31T14:16:53;180.00;;;178.50;;
38994;SDS011;24769;18.712;99.000;2023-03-31T14:19:47;194.50;;;189.75;;
38994;SDS011;24769;18.712;99.000;2023-03-31T14:25:13;188.00;;;184.50;;
38994;SDS011;24769;18.712;99.000;2023-03-31T14:36:55;200.50;;;198.75;;
38994;SDS011;24769;18.712;99.000;2023-03-31T14:39:26;199.00;;;198.25;;
38994;SDS011;24769;18.712;99.000;2023-03-31T14:42:03;206.75;;;204.25;;
38994;SDS011;24769;18.712;99.000;2023-03-31T14:44:35;210.67;;;203.67;;
38994;SDS011;24769;18.712;99.000;2023-03-31T14:47:04;220.67;;;216.00;;
38994;SDS011;24769;18.712;99.000;2023-03-31T14:49:35;215.00;;;211.00;;
38994;SDS011;24769;18.712;99.000;2023-03-31T14:52:20;205.33;;;203.67;;
38994;SDS011;24769;18.712;99.000;2023-03-31T14:54:49;214.67;;;209.00;;
38994;SDS011;24769;18.712;99.000;2023-03-31T14:57:25;211.25;;;207.25;;
38994;SDS011;24769;18.712;99.000;2023-03-31T14:59:58;198.25;;;194.50;;
38994;SDS011;24769;18.712;99.000;2023-03-31T15:02:39;204.75;;;197.75;;
38994;SDS011;24769;18.712;99.000;2023-03-31T15:05:08;201.00;;;198.75;;
38994;SDS011;24769;18.712;99.000;2023-03-31T15:07:45;206.00;;;199.75;;
38994;SDS011;24769;18.712;99.000;2023-03-31T15:10:15;196.67;;;192.67;;
38994;SDS011;24769;18.712;99.000;2023-03-31T15:12:48;206.00;;;200.75;;
38994;SDS011;24769;18.712;99.000;2023-03-31T15:15:17;202.33;;;197.67;;
38994;SDS011;24769;18.712;99.000;2023-03-31T15:17:45;212.00;;;203.67;;
38994;SDS011;24769;18.712;99.000;2023-03-31T15:20:27;202.67;;;201.00;;
38994;SDS011;24769;18.712;99.000;2023-03-31T15:22:57;207.00;;;203.00;;
38994;SDS011;24769;18.712;99.000;2023-03-31T15:25:31;226.33;;;223.00;;
38994;SDS011;24769;18.712;99.000;2023-03-31T15:28:08;202.33;;;198.33;;
38994;SDS011;24769;18.712;99.000;2023-03-31T15:30:38;207.75;;;204.50;;
38994;SDS011;24769;18.712;99.000;2023-03-31T15:33:06;205.00;;;199.25;;
38994;SDS011;24769;18.712;99.000;2023-03-31T15:35:42;200.00;;;197.75;;
38994;SDS011;24769;18.712;99.000;2023-03-31T15:38:09;208.25;;;204.00;;
38994;SDS011;24769;18.712;99.000;2023-03-31T15:40:40;202.00;;;198.75;;
38994;SDS011;24769;18.712;99.000;2023-03-31T15:43:16;205.00;;;202.75;;
38994;SDS011;24769;18.712;99.000;2023-03-31T15:45:52;215.33;;;204.67;;
38994;SDS011;24769;18.712;99.000;2023-03-31T15:48:31;210.33;;;206.33;;
38994;SDS011;24769;18.712;99.000;2023-03-31T15:51:12;210.75;;;203.50;;
38994;SDS011;24769;18.712;99.000;2023-03-31T15:53:48;202.25;;;197.00;;
38994;SDS011;24769;18.712;99.000;2023-03-31T16:01:55;203.50;;;200.00;;
38994;SDS011;24769;18.712;99.000;2023-03-31T16:04:27;199.75;;;198.50;;
38994;SDS011;24769;18.712;99.000;2023-03-31T16:07:01;189.00;;;186.75;;
38994;SDS011;24769;18.712;99.000;2023-03-31T16:10:04;202.75;;;200.25;;
38994;SDS011;24769;18.712;99.000;2023-03-31T16:12:50;211.00;;;207.75;;
38994;SDS011;24769;18.712;99.000;2023-03-31T16:15:22;204.33;;;201.33;;
38994;SDS011;24769;18.712;99.000;2023-03-31T16:18:15;209.00;;;203.33;;
38994;SDS011;24769;18.712;99.000;2023-03-31T16:20:55;213.33;;;210.33;;
38994;SDS011;24769;18.712;99.000;2023-03-31T16:23:24;212.00;;;204.67;;
38994;SDS011;24769;18.712;99.000;2023-03-31T16:25:53;212.33;;;203.33;;
38994;SDS011;24769;18.712;99.000;2023-03-31T16:28:24;225.00;;;218.33;;
38994;SDS011;24769;18.712;99.000;2023-03-31T16:30:57;217.67;;;211.33;;
38994;SDS011;24769;18.712;99.000;2023-03-31T16:33:26;207.33;;;205.00;;
38994;SDS011;24769;18.712;99.000;2023-03-31T16:35:55;213.00;;;208.67;;
38994;SDS011;24769;18.712;99.000;2023-03-31T16:38:24;215.67;;;208.00;;
38994;SDS011;24769;18.712;99.000;2023-03-31T16:40:52;203.75;;;202.75;;
38994;SDS011;24769;18.712;99.000;2023-03-31T16:43:24;203.33;;;201.67;;
38994;SDS011;24769;18.712;99.000;2023-03-31T16:45:53;222.25;;;214.75;;
38994;SDS011;24769;18.712;99.000;2023-03-31T16:48:22;210.00;;;208.50;;
38994;SDS011;24769;18.712;99.000;2023-03-31T16:50:52;220.50;;;216.25;;
38994;SDS011;24769;18.712;99.000;2023-03-31T16:53:22;195.00;;;189.00;;
38994;SDS011;24769;18.712;99.000;2023-03-31T16:55:52;206.00;;;205.50;;
38994;SDS011;24769;18.712;99.000;2023-03-31T16:58:19;214.50;;;210.75;;
38994;SDS011;24769;18.712;99.000;2023-03-31T17:00:48;211.25;;;203.00;;
38994;SDS011;24769;18.712;99.000;2023-03-31T17:03:16;205.25;;;199.50;;
38994;SDS011;24769;18.712;99.000;2023-03-31T17:05:46;207.00;;;202.25;;
38994;SDS011;24769;18.712;99.000;2023-03-31T17:08:17;209.75;;;205.00;;
38994;SDS011;24769;18.712;99.000;2023-03-31T17:10:54;223.50;;;220.25;;
38994;SDS011;24769;18.712;99.000;2023-03-31T17:13:29;212.75;;;205.00;;